sensor_id;sensor_type;location;lat;lon;timestamp;temperature;humidity
69324;DHT22;56470;47.350;8.718;2024-02-26T00:01:36;10.43;47.93
69324;DHT22;56470;47.350;8.718;2024-02-26T00:04:02;10.40;48.16
69324;DHT22;56470;47.350;8.718;2024-02-26T00:06:29;10.40;48.34
69324;DHT22;56470;47.350;8.718;2024-02-26T00:08:54;10.37;48.55
69324;DHT22;56470;47.350;8.718;2024-02-26T00:11:19;10.36;48.77
69324;DHT22;56470;47.350;8.718;2024-02-26T00:13:45;10.32;48.75
69324;DHT22;56470;47.350;8.718;2024-02-26T00:16:10;10.29;48.95
69324;DHT22;56470;47.350;8.718;2024-02-26T00:18:35;10.25;49.30
69324;DHT22;56470;47.350;8.718;2024-02-26T00:21:02;10.19;49.53
69324;DHT22;56470;47.350;8.718;2024-02-26T00:23:27;10.13;49.89
69324;DHT22;56470;47.350;8.718;2024-02-26T00:25:52;10.06;50.22
69324;DHT22;56470;47.350;8.718;2024-02-26T00:28:18;9.99;50.57
69324;DHT22;56470;47.350;8.718;2024-02-26T00:30:45;9.91;51.03
69324;DHT22;56470;47.350;8.718;2024-02-26T00:33:10;9.84;51.63
69324;DHT22;56470;47.350;8.718;2024-02-26T00:35:36;9.77;52.23
69324;DHT22;56470;47.350;8.718;2024-02-26T00:38:01;9.67;52.60
69324;DHT22;56470;47.350;8.718;2024-02-26T00:40:28;9.60;52.88
69324;DHT22;56470;47.350;8.718;2024-02-26T00:42:53;9.56;53.34
69324;DHT22;56470;47.350;8.718;2024-02-26T00:45:19;9.49;53.60
69324;DHT22;56470;47.350;8.718;2024-02-26T00:47:44;9.44;53.78
69324;DHT22;56470;47.350;8.718;2024-02-26T00:50:10;9.42;53.59
69324;DHT22;56470;47.350;8.718;2024-02-26T00:52:36;9.44;53.76
69324;DHT22;56470;47.350;8.718;2024-02-26T00:55:02;9.47;53.70
69324;DHT22;56470;47.350;8.718;2024-02-26T00:57:27;9.47;53.66
69324;DHT22;56470;47.350;8.718;2024-02-26T00:59:53;9.51;53.64
69324;DHT22;56470;47.350;8.718;2024-02-26T01:02:20;9.50;53.54
69324;DHT22;56470;47.350;8.718;2024-02-26T01:04:45;9.47;53.55
69324;DHT22;56470;47.350;8.718;2024-02-26T01:07:10;9.47;53.63
69324;DHT22;56470;47.350;8.718;2024-02-26T01:09:36;9.44;53.68
69324;DHT22;56470;47.350;8.718;2024-02-26T01:12:01;9.44;53.84
69324;DHT22;56470;47.350;8.718;2024-02-26T01:14:28;9.43;53.92
69324;DHT22;56470;47.350;8.718;2024-02-26T01:16:53;9.36;54.06
69324;DHT22;56470;47.350;8.718;2024-02-26T01:19:18;9.32;54.24
69324;DHT22;56470;47.350;8.718;2024-02-26T01:21:44;9.30;54.44
69324;DHT22;56470;47.350;8.718;2024-02-26T01:24:09;9.25;54.69
69324;DHT22;56470;47.350;8.718;2024-02-26T01:26:34;9.22;54.91
69324;DHT22;56470;47.350;8.718;2024-02-26T01:29:00;9.16;55.08
69324;DHT22;56470;47.350;8.718;2024-02-26T01:31:25;9.12;55.29
69324;DHT22;56470;47.350;8.718;2024-02-26T01:33:51;9.11;55.38
69324;DHT22;56470;47.350;8.718;2024-02-26T01:36:16;9.07;55.41
69324;DHT22;56470;47.350;8.718;2024-02-26T01:38:41;9.08;55.46
69324;DHT22;56470;47.350;8.718;2024-02-26T01:41:07;9.08;55.43
69324;DHT22;56470;47.350;8.718;2024-02-26T01:43:32;9.05;55.45
69324;DHT22;56470;47.350;8.718;2024-02-26T01:45:58;9.12;55.48
69324;DHT22;56470;47.350;8.718;2024-02-26T01:48:23;9.12;55.45
69324;DHT22;56470;47.350;8.718;2024-02-26T01:50:49;9.12;55.52
69324;DHT22;56470;47.350;8.718;2024-02-26T01:53:15;9.16;55.51
69324;DHT22;56470;47.350;8.718;2024-02-26T01:55:41;9.14;55.52
69324;DHT22;56470;47.350;8.718;2024-02-26T01:58:07;9.19;55.58
69324;DHT22;56470;47.350;8.718;2024-02-26T02:00:32;9.18;55.69
69324;DHT22;56470;47.350;8.718;2024-02-26T02:03:00;9.16;55.85
69324;DHT22;56470;47.350;8.718;2024-02-26T02:05:25;9.18;55.81
69324;DHT22;56470;47.350;8.718;2024-02-26T02:07:51;9.16;55.90
69324;DHT22;56470;47.350;8.718;2024-02-26T02:10:18;9.15;56.06
69324;DHT22;56470;47.350;8.718;2024-02-26T02:12:48;9.16;56.13
69324;DHT22;56470;47.350;8.718;2024-02-26T02:15:13;9.14;56.32
69324;DHT22;56470;47.350;8.718;2024-02-26T02:17:39;9.08;56.55
69324;DHT22;56470;47.350;8.718;2024-02-26T02:20:08;9.05;56.57
69324;DHT22;56470;47.350;8.718;2024-02-26T02:22:34;9.02;56.83
69324;DHT22;56470;47.350;8.718;2024-02-26T02:24:59;9.01;57.01
69324;DHT22;56470;47.350;8.718;2024-02-26T02:27:25;9.04;56.96
69324;DHT22;56470;47.350;8.718;2024-02-26T02:29:51;9.04;56.99
69324;DHT22;56470;47.350;8.718;2024-02-26T02:32:17;8.98;57.25
69324;DHT22;56470;47.350;8.718;2024-02-26T02:34:42;8.97;57.37
69324;DHT22;56470;47.350;8.718;2024-02-26T02:37:08;8.92;57.34
69324;DHT22;56470;47.350;8.718;2024-02-26T02:39:33;8.87;57.18
69324;DHT22;56470;47.350;8.718;2024-02-26T02:41:58;8.81;57.85
69324;DHT22;56470;47.350;8.718;2024-02-26T02:44:24;8.84;57.92
69324;DHT22;56470;47.350;8.718;2024-02-26T02:46:49;8.81;57.94
69324;DHT22;56470;47.350;8.718;2024-02-26T02:49:17;8.88;58.04
69324;DHT22;56470;47.350;8.718;2024-02-26T02:51:42;8.84;58.06
69324;DHT22;56470;47.350;8.718;2024-02-26T02:54:07;8.80;57.86
69324;DHT22;56470;47.350;8.718;2024-02-26T02:56:33;8.71;58.34
69324;DHT22;56470;47.350;8.718;2024-02-26T02:58:58;8.74;58.44
69324;DHT22;56470;47.350;8.718;2024-02-26T03:01:23;8.84;58.41
69324;DHT22;56470;47.350;8.718;2024-02-26T03:03:49;8.92;58.15
69324;DHT22;56470;47.350;8.718;2024-02-26T03:06:14;8.92;58.25
69324;DHT22;56470;47.350;8.718;2024-02-26T03:08:39;8.97;58.29
69324;DHT22;56470;47.350;8.718;2024-02-26T03:11:06;9.05;58.22
69324;DHT22;56470;47.350;8.718;2024-02-26T03:13:32;9.04;58.23
69324;DHT22;56470;47.350;8.718;2024-02-26T03:15:57;9.07;58.22
69324;DHT22;56470;47.350;8.718;2024-02-26T03:18:22;9.04;58.25
69324;DHT22;56470;47.350;8.718;2024-02-26T03:20:49;9.10;58.26
69324;DHT22;56470;47.350;8.718;2024-02-26T03:23:14;9.11;58.29
69324;DHT22;56470;47.350;8.718;2024-02-26T03:25:43;9.15;58.29
69324;DHT22;56470;47.350;8.718;2024-02-26T03:28:09;9.16;58.38
69324;DHT22;56470;47.350;8.718;2024-02-26T03:30:34;9.18;58.43
69324;DHT22;56470;47.350;8.718;2024-02-26T03:32:59;9.22;58.37
69324;DHT22;56470;47.350;8.718;2024-02-26T03:35:25;9.25;58.45
69324;DHT22;56470;47.350;8.718;2024-02-26T03:37:50;9.23;58.57
69324;DHT22;56470;47.350;8.718;2024-02-26T03:40:17;9.22;58.64
69324;DHT22;56470;47.350;8.718;2024-02-26T03:42:44;9.19;58.52
69324;DHT22;56470;47.350;8.718;2024-02-26T03:45:10;9.14;58.76
69324;DHT22;56470;47.350;8.718;2024-02-26T03:47:37;9.04;59.06
69324;DHT22;56470;47.350;8.718;2024-02-26T03:50:02;9.04;59.33
69324;DHT22;56470;47.350;8.718;2024-02-26T03:52:29;9.05;59.36
69324;DHT22;56470;47.350;8.718;2024-02-26T03:54:54;9.07;59.47
69324;DHT22;56470;47.350;8.718;2024-02-26T03:57:19;9.04;59.61
69324;DHT22;56470;47.350;8.718;2024-02-26T03:59:45;9.05;59.61
69324;DHT22;56470;47.350;8.718;2024-02-26T04:02:10;9.01;59.70
69324;DHT22;56470;47.350;8.718;2024-02-26T04:04:35;8.97;59.99
69324;DHT22;56470;47.350;8.718;2024-02-26T04:07:00;8.91;60.10
69324;DHT22;56470;47.350;8.718;2024-02-26T04:09:26;8.91;60.20
69324;DHT22;56470;47.350;8.718;2024-02-26T04:11:51;8.91;60.24
69324;DHT22;56470;47.350;8.718;2024-02-26T04:14:16;8.91;60.25
69324;DHT22;56470;47.350;8.718;2024-02-26T04:16:42;8.92;60.32
69324;DHT22;56470;47.350;8.718;2024-02-26T04:19:07;8.91;60.48
69324;DHT22;56470;47.350;8.718;2024-02-26T04:21:33;8.89;60.48
69324;DHT22;56470;47.350;8.718;2024-02-26T04:23:58;8.89;60.54
69324;DHT22;56470;47.350;8.718;2024-02-26T04:26:27;8.91;60.53
69324;DHT22;56470;47.350;8.718;2024-02-26T04:28:53;8.85;60.76
69324;DHT22;56470;47.350;8.718;2024-02-26T04:31:18;8.81;61.04
69324;DHT22;56470;47.350;8.718;2024-02-26T04:33:44;8.80;61.01
69324;DHT22;56470;47.350;8.718;2024-02-26T04:36:15;8.81;61.03
69324;DHT22;56470;47.350;8.718;2024-02-26T04:38:42;8.78;61.15
69324;DHT22;56470;47.350;8.718;2024-02-26T04:41:07;8.76;61.30
69324;DHT22;56470;47.350;8.718;2024-02-26T04:43:33;8.74;61.34
69324;DHT22;56470;47.350;8.718;2024-02-26T04:45:58;8.73;61.29
69324;DHT22;56470;47.350;8.718;2024-02-26T04:48:23;8.71;61.43
69324;DHT22;56470;47.350;8.718;2024-02-26T04:50:49;8.64;61.57
69324;DHT22;56470;47.350;8.718;2024-02-26T04:53:14;8.63;61.62
69324;DHT22;56470;47.350;8.718;2024-02-26T04:55:39;8.63;61.73
69324;DHT22;56470;47.350;8.718;2024-02-26T04:58:05;8.61;61.80
69324;DHT22;56470;47.350;8.718;2024-02-26T05:00:30;8.59;61.94
69324;DHT22;56470;47.350;8.718;2024-02-26T05:02:55;8.61;61.98
69324;DHT22;56470;47.350;8.718;2024-02-26T05:05:21;8.60;61.99
69324;DHT22;56470;47.350;8.718;2024-02-26T05:07:46;8.60;61.56
69324;DHT22;56470;47.350;8.718;2024-02-26T05:10:11;8.52;61.40
69324;DHT22;56470;47.350;8.718;2024-02-26T05:12:37;8.43;62.05
69324;DHT22;56470;47.350;8.718;2024-02-26T05:15:03;8.43;62.06
69324;DHT22;56470;47.350;8.718;2024-02-26T05:17:28;8.39;62.09
69324;DHT22;56470;47.350;8.718;2024-02-26T05:19:54;8.29;62.29
69324;DHT22;56470;47.350;8.718;2024-02-26T05:22:19;8.25;62.47
69324;DHT22;56470;47.350;8.718;2024-02-26T05:24:45;8.24;62.93
69324;DHT22;56470;47.350;8.718;2024-02-26T05:27:10;8.28;63.08
69324;DHT22;56470;47.350;8.718;2024-02-26T05:29:37;8.31;63.09
69324;DHT22;56470;47.350;8.718;2024-02-26T05:32:02;8.31;63.20
69324;DHT22;56470;47.350;8.718;2024-02-26T05:34:28;8.35;63.20
69324;DHT22;56470;47.350;8.718;2024-02-26T05:36:55;8.35;63.22
69324;DHT22;56470;47.350;8.718;2024-02-26T05:39:20;8.36;63.24
69324;DHT22;56470;47.350;8.718;2024-02-26T05:41:45;8.33;63.41
69324;DHT22;56470;47.350;8.718;2024-02-26T05:44:11;8.40;63.42
69324;DHT22;56470;47.350;8.718;2024-02-26T05:46:36;8.39;63.57
69324;DHT22;56470;47.350;8.718;2024-02-26T05:49:01;8.42;63.70
69324;DHT22;56470;47.350;8.718;2024-02-26T05:51:27;8.42;63.53
69324;DHT22;56470;47.350;8.718;2024-02-26T05:53:53;8.45;63.72
69324;DHT22;56470;47.350;8.718;2024-02-26T05:56:24;8.49;63.62
69324;DHT22;56470;47.350;8.718;2024-02-26T05:58:50;8.48;63.74
69324;DHT22;56470;47.350;8.718;2024-02-26T06:01:16;8.52;63.76
69324;DHT22;56470;47.350;8.718;2024-02-26T06:03:42;8.50;63.87
69324;DHT22;56470;47.350;8.718;2024-02-26T06:06:07;8.48;64.02
69324;DHT22;56470;47.350;8.718;2024-02-26T06:08:32;8.48;64.15
69324;DHT22;56470;47.350;8.718;2024-02-26T06:10:58;8.42;64.28
69324;DHT22;56470;47.350;8.718;2024-02-26T06:13:23;8.35;64.36
69324;DHT22;56470;47.350;8.718;2024-02-26T06:15:48;8.35;64.31
69324;DHT22;56470;47.350;8.718;2024-02-26T06:18:14;8.33;64.42
69324;DHT22;56470;47.350;8.718;2024-02-26T06:20:39;8.35;64.45
69324;DHT22;56470;47.350;8.718;2024-02-26T06:23:04;8.36;64.44
69324;DHT22;56470;47.350;8.718;2024-02-26T06:25:30;8.39;64.39
69324;DHT22;56470;47.350;8.718;2024-02-26T06:27:55;8.38;64.24
69324;DHT22;56470;47.350;8.718;2024-02-26T06:30:20;8.38;64.30
69324;DHT22;56470;47.350;8.718;2024-02-26T06:32:46;8.36;64.32
69324;DHT22;56470;47.350;8.718;2024-02-26T06:35:11;8.33;64.46
69324;DHT22;56470;47.350;8.718;2024-02-26T06:37:37;8.31;64.66
69324;DHT22;56470;47.350;8.718;2024-02-26T06:40:02;8.26;64.81
69324;DHT22;56470;47.350;8.718;2024-02-26T06:42:32;8.16;65.02
69324;DHT22;56470;47.350;8.718;2024-02-26T06:44:57;8.12;65.35
69324;DHT22;56470;47.350;8.718;2024-02-26T06:47:23;8.11;65.43
69324;DHT22;56470;47.350;8.718;2024-02-26T06:49:48;8.09;65.74
69324;DHT22;56470;47.350;8.718;2024-02-26T06:52:13;8.11;65.82
69324;DHT22;56470;47.350;8.718;2024-02-26T06:54:39;8.14;65.81
69324;DHT22;56470;47.350;8.718;2024-02-26T06:57:04;8.09;65.91
69324;DHT22;56470;47.350;8.718;2024-02-26T06:59:29;8.15;65.99
69324;DHT22;56470;47.350;8.718;2024-02-26T07:01:55;8.22;65.93
69324;DHT22;56470;47.350;8.718;2024-02-26T07:04:20;8.31;65.92
69324;DHT22;56470;47.350;8.718;2024-02-26T07:06:46;8.36;65.87
69324;DHT22;56470;47.350;8.718;2024-02-26T07:09:12;8.42;65.82
69324;DHT22;56470;47.350;8.718;2024-02-26T07:11:38;8.45;65.82
69324;DHT22;56470;47.350;8.718;2024-02-26T07:14:07;8.50;65.98
69324;DHT22;56470;47.350;8.718;2024-02-26T07:16:32;8.54;65.98
69324;DHT22;56470;47.350;8.718;2024-02-26T07:18:57;8.57;65.83
69324;DHT22;56470;47.350;8.718;2024-02-26T07:21:23;8.61;65.50
69324;DHT22;56470;47.350;8.718;2024-02-26T07:23:48;8.61;65.28
69324;DHT22;56470;47.350;8.718;2024-02-26T07:26:13;8.61;65.33
69324;DHT22;56470;47.350;8.718;2024-02-26T07:28:39;8.71;65.26
69324;DHT22;56470;47.350;8.718;2024-02-26T07:31:04;8.78;65.12
69324;DHT22;56470;47.350;8.718;2024-02-26T07:33:30;8.91;64.92
69324;DHT22;56470;47.350;8.718;2024-02-26T07:35:55;8.97;64.66
69324;DHT22;56470;47.350;8.718;2024-02-26T07:38:20;9.02;64.46
69324;DHT22;56470;47.350;8.718;2024-02-26T07:40:45;9.12;64.54
69324;DHT22;56470;47.350;8.718;2024-02-26T07:43:11;9.25;64.26
69324;DHT22;56470;47.350;8.718;2024-02-26T07:45:36;9.32;63.80
69324;DHT22;56470;47.350;8.718;2024-02-26T07:48:02;9.42;63.55
69324;DHT22;56470;47.350;8.718;2024-02-26T07:50:27;9.54;63.73
69324;DHT22;56470;47.350;8.718;2024-02-26T07:52:53;9.78;63.49
69324;DHT22;56470;47.350;8.718;2024-02-26T07:55:18;10.08;63.16
69324;DHT22;56470;47.350;8.718;2024-02-26T07:57:44;10.42;62.74
69324;DHT22;56470;47.350;8.718;2024-02-26T08:00:10;10.75;61.79
69324;DHT22;56470;47.350;8.718;2024-02-26T08:02:38;10.97;61.01
69324;DHT22;56470;47.350;8.718;2024-02-26T08:05:04;11.09;60.57
69324;DHT22;56470;47.350;8.718;2024-02-26T08:07:30;11.19;60.23
69324;DHT22;56470;47.350;8.718;2024-02-26T08:09:55;11.26;60.00
69324;DHT22;56470;47.350;8.718;2024-02-26T08:12:20;11.33;59.95
69324;DHT22;56470;47.350;8.718;2024-02-26T08:14:46;11.46;59.74
69324;DHT22;56470;47.350;8.718;2024-02-26T08:17:12;11.69;59.84
69324;DHT22;56470;47.350;8.718;2024-02-26T08:19:37;11.94;59.23
69324;DHT22;56470;47.350;8.718;2024-02-26T08:22:02;12.12;58.80
69324;DHT22;56470;47.350;8.718;2024-02-26T08:24:28;12.37;58.67
69324;DHT22;56470;47.350;8.718;2024-02-26T08:26:53;12.67;58.11
69324;DHT22;56470;47.350;8.718;2024-02-26T08:29:19;12.91;57.44
69324;DHT22;56470;47.350;8.718;2024-02-26T08:31:44;13.09;57.00
69324;DHT22;56470;47.350;8.718;2024-02-26T08:34:09;13.25;56.59
69324;DHT22;56470;47.350;8.718;2024-02-26T08:36:35;13.49;56.53
69324;DHT22;56470;47.350;8.718;2024-02-26T08:39:00;13.75;56.03
69324;DHT22;56470;47.350;8.718;2024-02-26T08:41:25;13.88;55.13
69324;DHT22;56470;47.350;8.718;2024-02-26T08:43:51;13.79;54.91
69324;DHT22;56470;47.350;8.718;2024-02-26T08:46:16;13.82;55.25
69324;DHT22;56470;47.350;8.718;2024-02-26T08:48:42;13.98;55.09
69324;DHT22;56470;47.350;8.718;2024-02-26T08:51:08;14.13;54.14
69324;DHT22;56470;47.350;8.718;2024-02-26T08:53:34;14.09;53.82
69324;DHT22;56470;47.350;8.718;2024-02-26T08:56:00;13.97;53.58
69324;DHT22;56470;47.350;8.718;2024-02-26T08:58:27;13.79;53.58
69324;DHT22;56470;47.350;8.718;2024-02-26T09:00:52;13.67;53.71
69324;DHT22;56470;47.350;8.718;2024-02-26T09:03:17;13.57;53.71
69324;DHT22;56470;47.350;8.718;2024-02-26T09:05:43;13.46;53.95
69324;DHT22;56470;47.350;8.718;2024-02-26T09:08:08;13.42;54.12
69324;DHT22;56470;47.350;8.718;2024-02-26T09:10:34;13.29;54.15
69324;DHT22;56470;47.350;8.718;2024-02-26T09:12:59;13.15;54.33
69324;DHT22;56470;47.350;8.718;2024-02-26T09:15:24;13.04;54.41
69324;DHT22;56470;47.350;8.718;2024-02-26T09:17:50;12.94;54.58
69324;DHT22;56470;47.350;8.718;2024-02-26T09:20:16;12.89;54.67
69324;DHT22;56470;47.350;8.718;2024-02-26T09:22:48;12.85;54.80
69324;DHT22;56470;47.350;8.718;2024-02-26T09:25:13;12.76;54.75
69324;DHT22;56470;47.350;8.718;2024-02-26T09:27:41;12.70;54.59
69324;DHT22;56470;47.350;8.718;2024-02-26T09:30:06;12.65;54.58
69324;DHT22;56470;47.350;8.718;2024-02-26T09:32:32;12.63;54.55
69324;DHT22;56470;47.350;8.718;2024-02-26T09:34:58;12.61;54.54
69324;DHT22;56470;47.350;8.718;2024-02-26T09:37:23;12.60;54.44
69324;DHT22;56470;47.350;8.718;2024-02-26T09:39:49;12.61;54.59
69324;DHT22;56470;47.350;8.718;2024-02-26T09:42:17;12.60;54.67
69324;DHT22;56470;47.350;8.718;2024-02-26T09:44:43;12.61;54.75
69324;DHT22;56470;47.350;8.718;2024-02-26T09:47:14;12.61;54.76
69324;DHT22;56470;47.350;8.718;2024-02-26T09:49:42;12.60;54.87
69324;DHT22;56470;47.350;8.718;2024-02-26T09:52:08;12.63;55.13
69324;DHT22;56470;47.350;8.718;2024-02-26T09:54:35;12.57;55.13
69324;DHT22;56470;47.350;8.718;2024-02-26T09:57:02;12.59;55.20
69324;DHT22;56470;47.350;8.718;2024-02-26T09:59:29;12.56;54.94
69324;DHT22;56470;47.350;8.718;2024-02-26T10:01:58;12.49;55.14
69324;DHT22;56470;47.350;8.718;2024-02-26T10:04:25;12.46;55.21
69324;DHT22;56470;47.350;8.718;2024-02-26T10:06:51;12.46;55.37
69324;DHT22;56470;47.350;8.718;2024-02-26T10:09:17;12.34;55.73
69324;DHT22;56470;47.350;8.718;2024-02-26T10:11:43;12.21;55.81
69324;DHT22;56470;47.350;8.718;2024-02-26T10:14:08;12.11;56.11
69324;DHT22;56470;47.350;8.718;2024-02-26T10:16:34;12.02;55.83
69324;DHT22;56470;47.350;8.718;2024-02-26T10:19:00;11.98;55.86
69324;DHT22;56470;47.350;8.718;2024-02-26T10:21:26;11.89;55.75
69324;DHT22;56470;47.350;8.718;2024-02-26T10:23:51;11.75;55.96
69324;DHT22;56470;47.350;8.718;2024-02-26T10:26:16;11.69;55.68
69324;DHT22;56470;47.350;8.718;2024-02-26T10:28:43;11.64;55.94
69324;DHT22;56470;47.350;8.718;2024-02-26T10:31:09;11.74;55.82
69324;DHT22;56470;47.350;8.718;2024-02-26T10:33:36;11.82;55.45
69324;DHT22;56470;47.350;8.718;2024-02-26T10:36:02;11.92;55.14
69324;DHT22;56470;47.350;8.718;2024-02-26T10:38:29;11.95;54.86
69324;DHT22;56470;47.350;8.718;2024-02-26T10:40:55;11.91;54.33
69324;DHT22;56470;47.350;8.718;2024-02-26T10:43:20;11.81;54.11
69324;DHT22;56470;47.350;8.718;2024-02-26T10:45:45;11.74;54.49
69324;DHT22;56470;47.350;8.718;2024-02-26T10:48:13;11.73;54.84
69324;DHT22;56470;47.350;8.718;2024-02-26T10:50:40;11.78;54.96
69324;DHT22;56470;47.350;8.718;2024-02-26T10:53:27;11.82;54.37
69324;DHT22;56470;47.350;8.718;2024-02-26T10:56:04;11.89;54.63
69324;DHT22;56470;47.350;8.718;2024-02-26T10:58:31;11.97;54.85
69324;DHT22;56470;47.350;8.718;2024-02-26T11:00:57;11.99;54.89
69324;DHT22;56470;47.350;8.718;2024-02-26T11:03:23;12.01;54.87
69324;DHT22;56470;47.350;8.718;2024-02-26T11:05:50;12.02;54.95
69324;DHT22;56470;47.350;8.718;2024-02-26T11:08:18;12.06;55.00
69324;DHT22;56470;47.350;8.718;2024-02-26T11:10:47;12.08;55.00
69324;DHT22;56470;47.350;8.718;2024-02-26T11:13:14;12.06;55.10
69324;DHT22;56470;47.350;8.718;2024-02-26T11:15:40;12.05;55.20
69324;DHT22;56470;47.350;8.718;2024-02-26T11:18:28;12.11;55.20
69324;DHT22;56470;47.350;8.718;2024-02-26T11:20:59;12.14;55.31
69324;DHT22;56470;47.350;8.718;2024-02-26T11:23:24;12.18;55.48
69324;DHT22;56470;47.350;8.718;2024-02-26T11:25:52;12.16;55.43
69324;DHT22;56470;47.350;8.718;2024-02-26T11:28:19;12.18;55.39
69324;DHT22;56470;47.350;8.718;2024-02-26T11:30:47;12.19;55.31
69324;DHT22;56470;47.350;8.718;2024-02-26T11:33:14;12.18;55.20
69324;DHT22;56470;47.350;8.718;2024-02-26T11:35:40;12.18;55.27
69324;DHT22;56470;47.350;8.718;2024-02-26T11:38:06;12.19;55.25
69324;DHT22;56470;47.350;8.718;2024-02-26T11:40:33;12.19;55.44
69324;DHT22;56470;47.350;8.718;2024-02-26T11:42:59;12.23;55.56
69324;DHT22;56470;47.350;8.718;2024-02-26T11:48:11;12.28;55.87
69324;DHT22;56470;47.350;8.718;2024-02-26T11:50:42;12.26;55.92
69324;DHT22;56470;47.350;8.718;2024-02-26T11:53:27;12.23;56.24
69324;DHT22;56470;47.350;8.718;2024-02-26T11:56:20;12.25;56.42
69324;DHT22;56470;47.350;8.718;2024-02-26T11:58:46;12.29;56.18
69324;DHT22;56470;47.350;8.718;2024-02-26T12:04:04;12.34;56.17
69324;DHT22;56470;47.350;8.718;2024-02-26T12:06:29;12.33;56.19
69324;DHT22;56470;47.350;8.718;2024-02-26T12:08:56;12.33;56.07
69324;DHT22;56470;47.350;8.718;2024-02-26T12:11:21;12.34;56.17
69324;DHT22;56470;47.350;8.718;2024-02-26T12:13:47;12.36;56.15
69324;DHT22;56470;47.350;8.718;2024-02-26T12:16:55;12.40;55.76
69324;DHT22;56470;47.350;8.718;2024-02-26T12:19:21;12.47;55.78
69324;DHT22;56470;47.350;8.718;2024-02-26T12:21:51;12.51;55.93
69324;DHT22;56470;47.350;8.718;2024-02-26T12:24:18;12.51;56.02
69324;DHT22;56470;47.350;8.718;2024-02-26T12:26:43;12.51;56.10
69324;DHT22;56470;47.350;8.718;2024-02-26T12:29:09;12.54;56.14
69324;DHT22;56470;47.350;8.718;2024-02-26T12:31:36;12.57;56.30
69324;DHT22;56470;47.350;8.718;2024-02-26T12:34:03;12.60;56.38
69324;DHT22;56470;47.350;8.718;2024-02-26T12:36:29;12.64;56.38
69324;DHT22;56470;47.350;8.718;2024-02-26T12:38:54;12.65;56.36
69324;DHT22;56470;47.350;8.718;2024-02-26T12:41:21;12.70;56.28
69324;DHT22;56470;47.350;8.718;2024-02-26T12:43:47;12.73;56.20
69324;DHT22;56470;47.350;8.718;2024-02-26T12:46:12;12.73;56.25
69324;DHT22;56470;47.350;8.718;2024-02-26T12:48:44;12.80;56.19
69324;DHT22;56470;47.350;8.718;2024-02-26T12:51:12;12.81;56.19
69324;DHT22;56470;47.350;8.718;2024-02-26T12:53:37;12.83;56.13
69324;DHT22;56470;47.350;8.718;2024-02-26T12:56:04;12.88;56.06
69324;DHT22;56470;47.350;8.718;2024-02-26T12:58:31;12.85;56.00
69324;DHT22;56470;47.350;8.718;2024-02-26T13:00:57;12.84;56.09
69324;DHT22;56470;47.350;8.718;2024-02-26T13:03:23;12.81;55.95
69324;DHT22;56470;47.350;8.718;2024-02-26T13:05:49;12.81;56.11
69324;DHT22;56470;47.350;8.718;2024-02-26T13:08:19;12.81;56.00
69324;DHT22;56470;47.350;8.718;2024-02-26T13:10:46;12.81;56.09
69324;DHT22;56470;47.350;8.718;2024-02-26T13:13:14;12.84;55.95
69324;DHT22;56470;47.350;8.718;2024-02-26T13:15:40;12.85;55.78
69324;DHT22;56470;47.350;8.718;2024-02-26T13:18:10;12.83;55.61
69324;DHT22;56470;47.350;8.718;2024-02-26T13:20:36;12.85;55.06
69324;DHT22;56470;47.350;8.718;2024-02-26T13:23:05;12.77;54.69
69324;DHT22;56470;47.350;8.718;2024-02-26T13:25:31;12.77;54.55
69324;DHT22;56470;47.350;8.718;2024-02-26T13:30:38;12.80;54.21
69324;DHT22;56470;47.350;8.718;2024-02-26T13:33:11;12.81;53.61
69324;DHT22;56470;47.350;8.718;2024-02-26T13:35:38;12.87;53.47
69324;DHT22;56470;47.350;8.718;2024-02-26T13:38:05;12.88;53.90
69324;DHT22;56470;47.350;8.718;2024-02-26T13:40:31;12.88;54.63
69324;DHT22;56470;47.350;8.718;2024-02-26T13:42:57;12.83;54.99
69324;DHT22;56470;47.350;8.718;2024-02-26T13:45:22;12.80;55.24
69324;DHT22;56470;47.350;8.718;2024-02-26T13:47:47;12.70;55.54
69324;DHT22;56470;47.350;8.718;2024-02-26T13:50:13;12.73;55.70
69324;DHT22;56470;47.350;8.718;2024-02-26T13:52:38;12.76;55.76
69324;DHT22;56470;47.350;8.718;2024-02-26T13:55:04;12.74;55.76
69324;DHT22;56470;47.350;8.718;2024-02-26T13:57:29;12.76;55.80
69324;DHT22;56470;47.350;8.718;2024-02-26T13:59:55;12.74;55.92
69324;DHT22;56470;47.350;8.718;2024-02-26T14:02:20;12.76;55.94
69324;DHT22;56470;47.350;8.718;2024-02-26T14:04:46;12.77;55.91
69324;DHT22;56470;47.350;8.718;2024-02-26T14:07:12;12.78;55.88
69324;DHT22;56470;47.350;8.718;2024-02-26T14:09:37;12.77;55.85
69324;DHT22;56470;47.350;8.718;2024-02-26T14:12:03;12.76;55.78
69324;DHT22;56470;47.350;8.718;2024-02-26T14:14:29;12.73;55.92
69324;DHT22;56470;47.350;8.718;2024-02-26T14:16:57;12.71;55.98
69324;DHT22;56470;47.350;8.718;2024-02-26T14:19:23;12.73;56.01
69324;DHT22;56470;47.350;8.718;2024-02-26T14:21:48;12.71;56.09
69324;DHT22;56470;47.350;8.718;2024-02-26T14:24:13;12.68;56.17
69324;DHT22;56470;47.350;8.718;2024-02-26T14:26:40;12.70;56.27
69324;DHT22;56470;47.350;8.718;2024-02-26T14:29:05;12.68;56.28
69324;DHT22;56470;47.350;8.718;2024-02-26T14:31:32;12.67;56.44
69324;DHT22;56470;47.350;8.718;2024-02-26T14:33:57;12.67;56.43
69324;DHT22;56470;47.350;8.718;2024-02-26T14:36:23;12.67;56.42
69324;DHT22;56470;47.350;8.718;2024-02-26T14:38:48;12.65;56.41
69324;DHT22;56470;47.350;8.718;2024-02-26T14:41:13;12.64;56.50
69324;DHT22;56470;47.350;8.718;2024-02-26T14:43:39;12.65;56.51
69324;DHT22;56470;47.350;8.718;2024-02-26T14:46:04;12.67;56.41
69324;DHT22;56470;47.350;8.718;2024-02-26T14:48:30;12.67;56.36
69324;DHT22;56470;47.350;8.718;2024-02-26T14:50:55;12.67;56.21
69324;DHT22;56470;47.350;8.718;2024-02-26T14:53:21;12.67;56.22
69324;DHT22;56470;47.350;8.718;2024-02-26T14:55:46;12.64;56.28
69324;DHT22;56470;47.350;8.718;2024-02-26T14:58:11;12.61;56.28
69324;DHT22;56470;47.350;8.718;2024-02-26T15:00:40;12.59;56.37
69324;DHT22;56470;47.350;8.718;2024-02-26T15:03:05;12.56;56.51
69324;DHT22;56470;47.350;8.718;2024-02-26T15:05:31;12.51;56.64
69324;DHT22;56470;47.350;8.718;2024-02-26T15:07:57;12.51;56.70
69324;DHT22;56470;47.350;8.718;2024-02-26T15:10:24;12.51;56.65
69324;DHT22;56470;47.350;8.718;2024-02-26T15:12:49;12.47;56.47
69324;DHT22;56470;47.350;8.718;2024-02-26T15:15:15;12.44;56.56
69324;DHT22;56470;47.350;8.718;2024-02-26T15:17:41;12.34;56.56
69324;DHT22;56470;47.350;8.718;2024-02-26T15:20:07;12.32;56.68
69324;DHT22;56470;47.350;8.718;2024-02-26T15:22:33;12.29;56.71
69324;DHT22;56470;47.350;8.718;2024-02-26T15:24:59;12.23;56.71
69324;DHT22;56470;47.350;8.718;2024-02-26T15:27:24;12.23;56.86
69324;DHT22;56470;47.350;8.718;2024-02-26T15:29:49;12.26;56.83
69324;DHT22;56470;47.350;8.718;2024-02-26T15:32:21;12.30;56.58
69324;DHT22;56470;47.350;8.718;2024-02-26T15:34:46;12.30;56.56
69324;DHT22;56470;47.350;8.718;2024-02-26T15:37:12;12.33;56.43
69324;DHT22;56470;47.350;8.718;2024-02-26T15:39:37;12.30;56.37